sensor_id;sensor_type;location;lat;lon;timestamp;pressure;altitude;pressure_sealevel;temperature;humidity
14242;BME280;7205;50.864;12.766;2023-02-15T00:01:58;99039.63;;;2.48;96.10
14242;BME280;7205;50.864;12.766;2023-02-15T00:04:25;99044.19;;;2.44;95.50
14242;BME280;7205;50.864;12.766;2023-02-15T00:07:13;99046.22;;;2.39;95.28
14242;BME280;7205;50.864;12.766;2023-02-15T00:09:40;99040.44;;;2.34;94.99
14242;BME280;7205;50.864;12.766;2023-02-15T00:12:07;99035.31;;;2.33;94.73
14242;BME280;7205;50.864;12.766;2023-02-15T00:14:35;99041.47;;;2.32;95.28
14242;BME280;7205;50.864;12.766;2023-02-15T00:17:03;99036.25;;;2.32;94.96
14242;BME280;7205;50.864;12.766;2023-02-15T00:19:30;99032.81;;;2.31;95.60
14242;BME280;7205;50.864;12.766;2023-02-15T00:21:57;99025.00;;;2.31;95.87
14242;BME280;7205;50.864;12.766;2023-02-15T00:24:23;99030.19;;;2.31;95.67
14242;BME280;7205;50.864;12.766;2023-02-15T00:26:50;99025.94;;;2.30;95.41
14242;BME280;7205;50.864;12.766;2023-02-15T00:29:18;99026.03;;;2.29;96.08
14242;BME280;7205;50.864;12.766;2023-02-15T00:31:46;99027.97;;;2.25;95.77
14242;BME280;7205;50.864;12.766;2023-02-15T00:34:17;99022.09;;;2.22;94.96
14242;BME280;7205;50.864;12.766;2023-02-15T00:36:44;99020.66;;;2.16;95.19
14242;BME280;7205;50.864;12.766;2023-02-15T00:39:14;99020.00;;;2.13;95.24
14242;BME280;7205;50.864;12.766;2023-02-15T00:41:41;99016.75;;;2.09;94.96
14242;BME280;7205;50.864;12.766;2023-02-15T00:44:09;99012.66;;;2.05;95.00
14242;BME280;7205;50.864;12.766;2023-02-15T00:46:35;99010.16;;;2.04;94.43
14242;BME280;7205;50.864;12.766;2023-02-15T00:49:03;99012.00;;;2.02;94.63
14242;BME280;7205;50.864;12.766;2023-02-15T00:51:32;99010.38;;;1.99;94.61
14242;BME280;7205;50.864;12.766;2023-02-15T00:53:59;99012.19;;;1.99;94.77
14242;BME280;7205;50.864;12.766;2023-02-15T00:56:26;99017.47;;;1.97;94.85
14242;BME280;7205;50.864;12.766;2023-02-15T00:58:53;99025.28;;;1.97;95.09
14242;BME280;7205;50.864;12.766;2023-02-15T01:01:21;99015.78;;;1.96;94.66
14242;BME280;7205;50.864;12.766;2023-02-15T01:03:50;99022.78;;;1.96;94.38
14242;BME280;7205;50.864;12.766;2023-02-15T01:06:17;99026.28;;;1.95;95.09
14242;BME280;7205;50.864;12.766;2023-02-15T01:08:45;99023.69;;;1.95;94.88
14242;BME280;7205;50.864;12.766;2023-02-15T01:11:14;99027.97;;;1.96;94.92
14242;BME280;7205;50.864;12.766;2023-02-15T01:13:48;99020.16;;;1.96;95.38
14242;BME280;7205;50.864;12.766;2023-02-15T01:16:15;99017.56;;;1.96;94.90
14242;BME280;7205;50.864;12.766;2023-02-15T01:18:42;99013.16;;;1.96;95.45
14242;BME280;7205;50.864;12.766;2023-02-15T01:21:11;99007.06;;;1.97;95.66
14242;BME280;7205;50.864;12.766;2023-02-15T01:23:39;99006.31;;;1.95;95.58
14242;BME280;7205;50.864;12.766;2023-02-15T01:26:08;99006.31;;;1.95;95.33
14242;BME280;7205;50.864;12.766;2023-02-15T01:28:35;98998.50;;;1.95;95.51
14242;BME280;7205;50.864;12.766;2023-02-15T01:31:05;98995.97;;;1.94;95.42
14242;BME280;7205;50.864;12.766;2023-02-15T01:33:32;98997.81;;;1.92;95.26
14242;BME280;7205;50.864;12.766;2023-02-15T01:35:59;98994.47;;;1.90;94.98
14242;BME280;7205;50.864;12.766;2023-02-15T01:38:25;98991.00;;;1.89;95.38
14242;BME280;7205;50.864;12.766;2023-02-15T01:40:53;98994.63;;;1.87;94.77
14242;BME280;7205;50.864;12.766;2023-02-15T01:43:44;98979.38;;;1.81;94.70
14242;BME280;7205;50.864;12.766;2023-02-15T01:46:12;98987.25;;;1.79;95.09
14242;BME280;7205;50.864;12.766;2023-02-15T01:48:44;98979.63;;;1.76;94.35
14242;BME280;7205;50.864;12.766;2023-02-15T01:51:14;98971.16;;;1.73;94.71
14242;BME280;7205;50.864;12.766;2023-02-15T01:53:48;98968.63;;;1.71;94.80
14242;BME280;7205;50.864;12.766;2023-02-15T01:56:19;98964.66;;;1.66;94.58
14242;BME280;7205;50.864;12.766;2023-02-15T01:58:51;98960.44;;;1.63;93.81
14242;BME280;7205;50.864;12.766;2023-02-15T02:01:21;98952.72;;;1.62;94.16
14242;BME280;7205;50.864;12.766;2023-02-15T02:03:55;98946.66;;;1.61;94.88
14242;BME280;7205;50.864;12.766;2023-02-15T02:06:24;98951.09;;;1.59;94.69
14242;BME280;7205;50.864;12.766;2023-02-15T02:08:53;98958.91;;;1.59;94.90
14242;BME280;7205;50.864;12.766;2023-02-15T02:11:20;98954.66;;;1.58;94.70
14242;BME280;7205;50.864;12.766;2023-02-15T02:13:47;98947.78;;;1.57;94.74
14242;BME280;7205;50.864;12.766;2023-02-15T02:16:20;98942.56;;;1.57;94.24
14242;BME280;7205;50.864;12.766;2023-02-15T02:19:04;98941.72;;;1.57;94.69
14242;BME280;7205;50.864;12.766;2023-02-15T02:21:58;98938.19;;;1.58;95.56
14242;BME280;7205;50.864;12.766;2023-02-15T02:24:50;98934.78;;;1.57;95.61
14242;BME280;7205;50.864;12.766;2023-02-15T02:27:30;98929.66;;;1.56;94.94
14242;BME280;7205;50.864;12.766;2023-02-15T02:30:17;98929.81;;;1.53;95.31
14242;BME280;7205;50.864;12.766;2023-02-15T02:35:57;98923.88;;;1.51;95.50
14242;BME280;7205;50.864;12.766;2023-02-15T02:38:28;98916.06;;;1.51;95.69
14242;BME280;7205;50.864;12.766;2023-02-15T02:41:07;98913.47;;;1.51;95.34
14242;BME280;7205;50.864;12.766;2023-02-15T02:43:44;98917.72;;;1.52;95.80
14242;BME280;7205;50.864;12.766;2023-02-15T02:46:19;98910.00;;;1.50;95.16
14242;BME280;7205;50.864;12.766;2023-02-15T02:48:48;98912.72;;;1.49;95.53
14242;BME280;7205;50.864;12.766;2023-02-15T02:51:16;98912.03;;;1.45;95.49
14242;BME280;7205;50.864;12.766;2023-02-15T02:53:49;98906.19;;;1.42;95.30
14242;BME280;7205;50.864;12.766;2023-02-15T02:56:22;98906.34;;;1.39;94.59
14242;BME280;7205;50.864;12.766;2023-02-15T02:58:55;98907.25;;;1.38;94.65
14242;BME280;7205;50.864;12.766;2023-02-15T03:01:27;98908.19;;;1.37;95.09
14242;BME280;7205;50.864;12.766;2023-02-15T03:03:58;98903.94;;;1.36;94.38
14242;BME280;7205;50.864;12.766;2023-02-15T03:06:35;98906.53;;;1.36;94.77
14242;BME280;7205;50.864;12.766;2023-02-15T03:09:08;98903.19;;;1.34;95.21
14242;BME280;7205;50.864;12.766;2023-02-15T03:11:41;98904.09;;;1.33;95.07
14242;BME280;7205;50.864;12.766;2023-02-15T03:14:09;98910.13;;;1.33;95.36
14242;BME280;7205;50.864;12.766;2023-02-15T03:16:38;98908.28;;;1.35;95.32
14242;BME280;7205;50.864;12.766;2023-02-15T03:19:08;98906.53;;;1.36;95.26
14242;BME280;7205;50.864;12.766;2023-02-15T03:21:41;98902.91;;;1.38;94.83
14242;BME280;7205;50.864;12.766;2023-02-15T03:24:11;98904.50;;;1.41;95.04
14242;BME280;7205;50.864;12.766;2023-02-15T03:26:40;98894.09;;;1.41;94.95
14242;BME280;7205;50.864;12.766;2023-02-15T03:29:11;98894.09;;;1.41;95.26
14242;BME280;7205;50.864;12.766;2023-02-15T03:31:41;98898.47;;;1.40;95.16
14242;BME280;7205;50.864;12.766;2023-02-15T03:34:10;98897.69;;;1.38;94.76
14242;BME280;7205;50.864;12.766;2023-02-15T03:36:44;98897.63;;;1.40;94.65
14242;BME280;7205;50.864;12.766;2023-02-15T03:39:18;98897.63;;;1.40;95.05
14242;BME280;7205;50.864;12.766;2023-02-15T03:41:52;98892.50;;;1.38;94.92
14242;BME280;7205;50.864;12.766;2023-02-15T03:44:25;98887.28;;;1.38;95.12
14242;BME280;7205;50.864;12.766;2023-02-15T03:46:58;98885.72;;;1.36;94.55
14242;BME280;7205;50.864;12.766;2023-02-15T03:49:30;98877.97;;;1.34;95.08
14242;BME280;7205;50.864;12.766;2023-02-15T03:52:02;98883.28;;;1.33;94.46
14242;BME280;7205;50.864;12.766;2023-02-15T03:54:31;98875.47;;;1.33;94.43
14242;BME280;7205;50.864;12.766;2023-02-15T03:57:11;98880.75;;;1.31;94.72
14242;BME280;7205;50.864;12.766;2023-02-15T03:59:56;98873.97;;;1.28;94.56
14242;BME280;7205;50.864;12.766;2023-02-15T04:02:50;98879.28;;;1.27;94.61
14242;BME280;7205;50.864;12.766;2023-02-15T04:05:19;98872.38;;;1.26;94.92
14242;BME280;7205;50.864;12.766;2023-02-15T04:07:47;98886.22;;;1.26;94.68
14242;BME280;7205;50.864;12.766;2023-02-15T04:10:14;98883.81;;;1.23;94.99
14242;BME280;7205;50.864;12.766;2023-02-15T04:12:58;98882.97;;;1.23;94.71
14242;BME280;7205;50.864;12.766;2023-02-15T04:15:25;98883.06;;;1.21;93.94
14242;BME280;7205;50.864;12.766;2023-02-15T04:18:09;98883.16;;;1.20;94.19
14242;BME280;7205;50.864;12.766;2023-02-15T04:20:36;98884.97;;;1.18;94.35
14242;BME280;7205;50.864;12.766;2023-02-15T04:23:21;98875.53;;;1.17;93.98
14242;BME280;7205;50.864;12.766;2023-02-15T04:26:06;98879.88;;;1.16;93.89
14242;BME280;7205;50.864;12.766;2023-02-15T04:28:32;98888.53;;;1.17;94.19
14242;BME280;7205;50.864;12.766;2023-02-15T04:30:59;98880.81;;;1.15;94.21
14242;BME280;7205;50.864;12.766;2023-02-15T04:33:26;98883.41;;;1.15;94.47
14242;BME280;7205;50.864;12.766;2023-02-15T04:35:53;98873.00;;;1.15;94.72
14242;BME280;7205;50.864;12.766;2023-02-15T04:38:19;98873.00;;;1.15;94.23
14242;BME280;7205;50.864;12.766;2023-02-15T04:40:50;98866.03;;;1.16;94.33
14242;BME280;7205;50.864;12.766;2023-02-15T04:43:18;98865.13;;;1.17;94.59
14242;BME280;7205;50.864;12.766;2023-02-15T04:45:48;98865.84;;;1.19;95.26
14242;BME280;7205;50.864;12.766;2023-02-15T04:48:15;98860.66;;;1.19;94.95
14242;BME280;7205;50.864;12.766;2023-02-15T04:50:43;98868.44;;;1.19;95.14
14242;BME280;7205;50.864;12.766;2023-02-15T04:53:10;98859.91;;;1.17;94.71
14242;BME280;7205;50.864;12.766;2023-02-15T04:55:37;98863.50;;;1.14;94.75
14242;BME280;7205;50.864;12.766;2023-02-15T04:58:05;98847.25;;;1.11;94.89
14242;BME280;7205;50.864;12.766;2023-02-15T05:00:32;98853.47;;;1.08;94.15
14242;BME280;7205;50.864;12.766;2023-02-15T05:02:59;98846.56;;;1.07;94.57
14242;BME280;7205;50.864;12.766;2023-02-15T05:05:26;98849.25;;;1.06;94.05
14242;BME280;7205;50.864;12.766;2023-02-15T05:07:53;98839.81;;;1.05;94.13
14242;BME280;7205;50.864;12.766;2023-02-15T05:10:20;98836.25;;;1.06;94.08
14242;BME280;7205;50.864;12.766;2023-02-15T05:12:46;98830.31;;;1.04;94.04
14242;BME280;7205;50.864;12.766;2023-02-15T05:15:15;98839.81;;;1.05;94.60
14242;BME280;7205;50.864;12.766;2023-02-15T05:17:41;98834.50;;;1.06;94.91
14242;BME280;7205;50.864;12.766;2023-02-15T05:20:09;98835.34;;;1.07;95.03
14242;BME280;7205;50.864;12.766;2023-02-15T05:22:36;98837.88;;;1.08;95.33
14242;BME280;7205;50.864;12.766;2023-02-15T05:25:03;98841.28;;;1.09;95.18
14242;BME280;7205;50.864;12.766;2023-02-15T05:27:47;98837.97;;;1.07;95.36
14242;BME280;7205;50.864;12.766;2023-02-15T05:30:32;98843.16;;;1.07;94.42
14242;BME280;7205;50.864;12.766;2023-02-15T05:32:59;98844.91;;;1.06;94.84
14242;BME280;7205;50.864;12.766;2023-02-15T05:35:26;98850.13;;;1.06;94.82
14242;BME280;7205;50.864;12.766;2023-02-15T05:37:53;98842.31;;;1.06;94.59
14242;BME280;7205;50.864;12.766;2023-02-15T05:40:20;98845.66;;;1.08;95.55
14242;BME280;7205;50.864;12.766;2023-02-15T05:42:46;98842.97;;;1.10;95.59
14242;BME280;7205;50.864;12.766;2023-02-15T05:45:13;98850.59;;;1.13;95.88
14242;BME280;7205;50.864;12.766;2023-02-15T05:47:42;98848.94;;;1.12;95.17
14242;BME280;7205;50.864;12.766;2023-02-15T05:50:09;98850.69;;;1.11;95.92
14242;BME280;7205;50.864;12.766;2023-02-15T05:52:36;98843.81;;;1.10;95.03
14242;BME280;7205;50.864;12.766;2023-02-15T05:55:04;98843.72;;;1.12;95.69
14242;BME280;7205;50.864;12.766;2023-02-15T05:57:31;98852.19;;;1.15;96.13
14242;BME280;7205;50.864;12.766;2023-02-15T05:59:57;98851.09;;;1.19;96.50
14242;BME280;7205;50.864;12.766;2023-02-15T06:02:24;98851.09;;;1.19;96.46
14242;BME280;7205;50.864;12.766;2023-02-15T06:04:52;98849.41;;;1.18;96.32
14242;BME280;7205;50.864;12.766;2023-02-15T06:07:19;98847.81;;;1.16;96.51
14242;BME280;7205;50.864;12.766;2023-02-15T06:09:46;98838.34;;;1.15;95.85
14242;BME280;7205;50.864;12.766;2023-02-15T06:12:13;98850.50;;;1.14;95.83
14242;BME280;7205;50.864;12.766;2023-02-15T06:14:39;98849.75;;;1.12;96.30
14242;BME280;7205;50.864;12.766;2023-02-15T06:17:06;98854.94;;;1.12;95.69
14242;BME280;7205;50.864;12.766;2023-02-15T06:19:33;98848.84;;;1.13;95.67
14242;BME280;7205;50.864;12.766;2023-02-15T06:22:01;98849.59;;;1.15;95.93
14242;BME280;7205;50.864;12.766;2023-02-15T06:24:28;98846.06;;;1.16;96.18
14242;BME280;7205;50.864;12.766;2023-02-15T06:26:54;98854.53;;;1.20;96.32
14242;BME280;7205;50.864;12.766;2023-02-15T06:29:21;98854.44;;;1.21;96.47
14242;BME280;7205;50.864;12.766;2023-02-15T06:31:48;98855.13;;;1.25;97.27
14242;BME280;7205;50.864;12.766;2023-02-15T06:34:15;98855.88;;;1.27;97.36
14242;BME280;7205;50.864;12.766;2023-02-15T06:36:42;98854.94;;;1.28;96.98
14242;BME280;7205;50.864;12.766;2023-02-15T06:39:10;98861.72;;;1.31;97.26
14242;BME280;7205;50.864;12.766;2023-02-15T06:41:37;98852.16;;;1.31;97.56
14242;BME280;7205;50.864;12.766;2023-02-15T06:44:04;98850.28;;;1.33;97.51
14242;BME280;7205;50.864;12.766;2023-02-15T06:46:31;98851.91;;;1.36;97.78
14242;BME280;7205;50.864;12.766;2023-02-15T06:48:57;98857.72;;;1.39;97.63
14242;BME280;7205;50.864;12.766;2023-02-15T06:51:24;98843.81;;;1.40;97.76
14242;BME280;7205;50.864;12.766;2023-02-15T06:53:51;98853.94;;;1.45;98.22
14242;BME280;7205;50.864;12.766;2023-02-15T06:56:19;98845.81;;;1.51;98.67
14242;BME280;7205;50.864;12.766;2023-02-15T06:58:46;98854.09;;;1.57;98.92
14242;BME280;7205;50.864;12.766;2023-02-15T07:01:15;98844.16;;;1.64;98.63
14242;BME280;7205;50.864;12.766;2023-02-15T07:03:41;98848.09;;;1.71;99.32
14242;BME280;7205;50.864;12.766;2023-02-15T07:06:08;98847.78;;;1.75;99.04
14242;BME280;7205;50.864;12.766;2023-02-15T07:08:36;98844.00;;;1.81;98.83
14242;BME280;7205;50.864;12.766;2023-02-15T07:11:04;98852.44;;;1.84;98.59
14242;BME280;7205;50.864;12.766;2023-02-15T07:13:50;98841.78;;;1.89;99.11
14242;BME280;7205;50.864;12.766;2023-02-15T07:16:18;98837.88;;;1.96;99.14
14242;BME280;7205;50.864;12.766;2023-02-15T07:18:45;98842.81;;;2.00;99.99
14242;BME280;7205;50.864;12.766;2023-02-15T07:21:12;98845.88;;;2.07;100.00
14242;BME280;7205;50.864;12.766;2023-02-15T07:23:39;98831.75;;;2.11;99.86
14242;BME280;7205;50.864;12.766;2023-02-15T07:26:06;98833.13;;;2.16;99.42
14242;BME280;7205;50.864;12.766;2023-02-15T07:28:34;98830.16;;;2.22;100.00
14242;BME280;7205;50.864;12.766;2023-02-15T07:31:03;98826.41;;;2.26;100.00
14242;BME280;7205;50.864;12.766;2023-02-15T07:33:30;98822.69;;;2.30;100.00
14242;BME280;7205;50.864;12.766;2023-02-15T07:36:00;98820.72;;;2.34;99.78
14242;BME280;7205;50.864;12.766;2023-02-15T07:38:31;98816.06;;;2.39;100.00
14242;BME280;7205;50.864;12.766;2023-02-15T07:40:58;98819.22;;;2.44;100.00
14242;BME280;7205;50.864;12.766;2023-02-15T07:43:25;98813.72;;;2.48;100.00
14242;BME280;7205;50.864;12.766;2023-02-15T07:45:52;98807.28;;;2.54;100.00
14242;BME280;7205;50.864;12.766;2023-02-15T07:48:21;98803.47;;;2.60;100.00
14242;BME280;7205;50.864;12.766;2023-02-15T07:50:48;98799.50;;;2.67;100.00
14242;BME280;7205;50.864;12.766;2023-02-15T07:53:15;98804.25;;;2.74;100.00
14242;BME280;7205;50.864;12.766;2023-02-15T07:55:41;98796.88;;;2.81;100.00
14242;BME280;7205;50.864;12.766;2023-02-15T07:58:08;98797.22;;;2.89;100.00
14242;BME280;7205;50.864;12.766;2023-02-15T08:00:35;98795.03;;;2.95;100.00
14242;BME280;7205;50.864;12.766;2023-02-15T08:03:24;98794.47;;;3.04;100.00
14242;BME280;7205;50.864;12.766;2023-02-15T08:05:56;98791.16;;;3.15;100.00
14242;BME280;7205;50.864;12.766;2023-02-15T08:08:24;98793.13;;;3.24;100.00
14242;BME280;7205;50.864;12.766;2023-02-15T08:11:02;98788.97;;;3.34;100.00
14242;BME280;7205;50.864;12.766;2023-02-15T08:13:48;98780.66;;;3.41;100.00
14242;BME280;7205;50.864;12.766;2023-02-15T08:16:25;98786.94;;;3.51;100.00
14242;BME280;7205;50.864;12.766;2023-02-15T08:18:54;98776.59;;;3.62;100.00
14242;BME280;7205;50.864;12.766;2023-02-15T08:21:22;98783.59;;;3.74;100.00
14242;BME280;7205;50.864;12.766;2023-02-15T08:23:49;98784.53;;;3.86;100.00
14242;BME280;7205;50.864;12.766;2023-02-15T08:26:16;98776.78;;;3.97;100.00
14242;BME280;7205;50.864;12.766;2023-02-15T08:28:43;98781.16;;;4.09;100.00
14242;BME280;7205;50.864;12.766;2023-02-15T08:31:13;98775.69;;;4.25;100.00
14242;BME280;7205;50.864;12.766;2023-02-15T08:33:41;98768.53;;;4.39;100.00
14242;BME280;7205;50.864;12.766;2023-02-15T08:36:11;98763.91;;;4.55;100.00
14242;BME280;7205;50.864;12.766;2023-02-15T08:38:39;98768.72;;;4.72;100.00
14242;BME280;7205;50.864;12.766;2023-02-15T08:41:11;98764.69;;;4.92;100.00
14242;BME280;7205;50.864;12.766;2023-02-15T08:43:39;98764.97;;;5.11;100.00
14242;BME280;7205;50.864;12.766;2023-02-15T08:46:06;98763.72;;;5.28;100.00
14242;BME280;7205;50.864;12.766;2023-02-15T08:48:33;98756.41;;;5.44;100.00
14242;BME280;7205;50.864;12.766;2023-02-15T08:51:04;98750.00;;;5.59;99.11
14242;BME280;7205;50.864;12.766;2023-02-15T08:53:33;98740.13;;;5.73;98.44
14242;BME280;7205;50.864;12.766;2023-02-15T08:56:00;98738.38;;;5.85;96.84
14242;BME280;7205;50.864;12.766;2023-02-15T08:58:28;98736.47;;;5.98;96.54
14242;BME280;7205;50.864;12.766;2023-02-15T09:00:56;98736.47;;;6.09;95.32
14242;BME280;7205;50.864;12.766;2023-02-15T09:03:23;98734.81;;;6.19;94.22
14242;BME280;7205;50.864;12.766;2023-02-15T09:05:49;98733.84;;;6.31;93.21
14242;BME280;7205;50.864;12.766;2023-02-15T09:08:16;98720.56;;;6.44;91.75
14242;BME280;7205;50.864;12.766;2023-02-15T09:10:44;98718.50;;;6.58;90.19
14242;BME280;7205;50.864;12.766;2023-02-15T09:13:11;98722.75;;;6.70;88.65
14242;BME280;7205;50.864;12.766;2023-02-15T09:15:38;98719.28;;;6.81;87.41
14242;BME280;7205;50.864;12.766;2023-02-15T09:18:05;98715.78;;;6.91;85.97
14242;BME280;7205;50.864;12.766;2023-02-15T09:20:35;98714.06;;;7.01;84.63
14242;BME280;7205;50.864;12.766;2023-02-15T09:23:02;98709.94;;;7.08;83.63
14242;BME280;7205;50.864;12.766;2023-02-15T09:25:29;98707.53;;;7.16;81.75
14242;BME280;7205;50.864;12.766;2023-02-15T09:27:57;98711.19;;;7.25;80.69
14242;BME280;7205;50.864;12.766;2023-02-15T09:30:24;98705.41;;;7.31;79.00
14242;BME280;7205;50.864;12.766;2023-02-15T09:32:50;98702.97;;;7.39;77.88
14242;BME280;7205;50.864;12.766;2023-02-15T09:35:17;98705.78;;;7.47;77.34
14242;BME280;7205;50.864;12.766;2023-02-15T09:37:44;98706.94;;;7.54;76.53
14242;BME280;7205;50.864;12.766;2023-02-15T09:40:12;98707.94;;;7.62;75.54
14242;BME280;7205;50.864;12.766;2023-02-15T09:46:02;98695.41;;;7.76;74.46
14242;BME280;7205;50.864;12.766;2023-02-15T09:48:39;98701.13;;;7.81;73.97
14242;BME280;7205;50.864;12.766;2023-02-15T09:51:22;98702.53;;;7.85;73.56
14242;BME280;7205;50.864;12.766;2023-02-15T09:54:09;98693.28;;;7.90;73.56
14242;BME280;7205;50.864;12.766;2023-02-15T09:56:43;98691.91;;;7.96;72.83
14242;BME280;7205;50.864;12.766;2023-02-15T09:59:18;98694.72;;;8.04;71.99
14242;BME280;7205;50.864;12.766;2023-02-15T10:01:58;98689.63;;;8.12;71.20
14242;BME280;7205;50.864;12.766;2023-02-15T10:04:49;98684.53;;;8.20;70.55
14242;BME280;7205;50.864;12.766;2023-02-15T10:07:30;98683.88;;;8.27;69.71
14242;BME280;7205;50.864;12.766;2023-02-15T10:10:09;98684.72;;;8.37;69.32
14242;BME280;7205;50.864;12.766;2023-02-15T10:12:57;98686.69;;;8.45;68.22
14242;BME280;7205;50.864;12.766;2023-02-15T10:15:37;98679.78;;;8.53;66.65
14242;BME280;7205;50.864;12.766;2023-02-15T10:18:22;98677.97;;;8.63;65.97
14242;BME280;7205;50.864;12.766;2023-02-15T10:20:56;98676.47;;;8.70;65.91
14242;BME280;7205;50.864;12.766;2023-02-15T10:23:46;98678.41;;;8.78;64.27
14242;BME280;7205;50.864;12.766;2023-02-15T10:26:18;98677.72;;;8.85;63.89
14242;BME280;7205;50.864;12.766;2023-02-15T10:28:48;98675.22;;;8.94;63.01
14242;BME280;7205;50.864;12.766;2023-02-15T10:31:27;98677.28;;;9.00;62.91
14242;BME280;7205;50.864;12.766;2023-02-15T10:34:12;98668.00;;;9.05;62.17
14242;BME280;7205;50.864;12.766;2023-02-15T10:37:01;98668.41;;;9.10;61.61
14242;BME280;7205;50.864;12.766;2023-02-15T10:39:37;98679.34;;;9.15;61.17
14242;BME280;7205;50.864;12.766;2023-02-15T10:42:14;98672.00;;;9.19;59.58
14242;BME280;7205;50.864;12.766;2023-02-15T10:44:54;98669.09;;;9.22;58.35
14242;BME280;7205;50.864;12.766;2023-02-15T10:47:41;98665.59;;;9.21;57.34
14242;BME280;7205;50.864;12.766;2023-02-15T10:50:21;98670.63;;;9.24;57.14
14242;BME280;7205;50.864;12.766;2023-02-15T10:53:09;98664.50;;;9.24;56.59
14242;BME280;7205;50.864;12.766;2023-02-15T10:55:50;98665.19;;;9.26;56.24
14242;BME280;7205;50.864;12.766;2023-02-15T10:58:28;98663.94;;;9.30;55.73
14242;BME280;7205;50.864;12.766;2023-02-15T11:01:02;98662.97;;;9.31;55.51
14242;BME280;7205;50.864;12.766;2023-02-15T11:03:48;98666.41;;;9.31;56.03
14242;BME280;7205;50.864;12.766;2023-02-15T11:06:21;98660.19;;;9.32;55.61
14242;BME280;7205;50.864;12.766;2023-02-15T11:08:51;98665.31;;;9.34;55.77
14242;BME280;7205;50.864;12.766;2023-02-15T11:11:23;98655.63;;;9.34;56.47
14242;BME280;7205;50.864;12.766;2023-02-15T11:13:56;98660.88;;;9.34;55.97
14242;BME280;7205;50.864;12.766;2023-02-15T11:16:27;98658.09;;;9.36;56.15
14242;BME280;7205;50.864;12.766;2023-02-15T11:18:58;98646.88;;;9.34;56.30
14242;BME280;7205;50.864;12.766;2023-02-15T11:21:32;98648.22;;;9.38;56.36
14242;BME280;7205;50.864;12.766;2023-02-15T11:24:09;98650.88;;;9.38;56.39
14242;BME280;7205;50.864;12.766;2023-02-15T11:26:39;98656.03;;;9.39;55.57
14242;BME280;7205;50.864;12.766;2023-02-15T11:29:10;98645.47;;;9.39;56.19
14242;BME280;7205;50.864;12.766;2023-02-15T11:31:51;98656.69;;;9.41;55.86
14242;BME280;7205;50.864;12.766;2023-02-15T11:34:24;98643.25;;;9.44;56.59
14242;BME280;7205;50.864;12.766;2023-02-15T11:36:58;98652.66;;;9.47;56.35
14242;BME280;7205;50.864;12.766;2023-02-15T11:39:28;98644.59;;;9.48;54.53
14242;BME280;7205;50.864;12.766;2023-02-15T11:42:00;98640.16;;;9.49;53.71
14242;BME280;7205;50.864;12.766;2023-02-15T11:44:32;98641.00;;;9.49;52.92
14242;BME280;7205;50.864;12.766;2023-02-15T11:47:01;98639.03;;;9.51;52.90
14242;BME280;7205;50.864;12.766;2023-02-15T11:49:31;98630.84;;;9.54;52.84
14242;BME280;7205;50.864;12.766;2023-02-15T11:52:00;98627.09;;;9.57;53.04
14242;BME280;7205;50.864;12.766;2023-02-15T11:54:30;98623.47;;;9.58;52.65
14242;BME280;7205;50.864;12.766;2023-02-15T11:57:03;98625.16;;;9.59;51.89
14242;BME280;7205;50.864;12.766;2023-02-15T11:59:34;98618.75;;;9.61;51.82
14242;BME280;7205;50.864;12.766;2023-02-15T12:02:15;98613.31;;;9.63;51.57
14242;BME280;7205;50.864;12.766;2023-02-15T12:04:48;98600.00;;;9.64;51.99
14242;BME280;7205;50.864;12.766;2023-02-15T12:07:28;98599.72;;;9.67;51.68
14242;BME280;7205;50.864;12.766;2023-02-15T12:10:02;98609.13;;;9.70;51.62
14242;BME280;7205;50.864;12.766;2023-02-15T12:12:34;98604.53;;;9.72;52.51
14242;BME280;7205;50.864;12.766;2023-02-15T12:15:03;98605.09;;;9.75;52.76
14242;BME280;7205;50.864;12.766;2023-02-15T12:17:32;98605.47;;;9.80;52.53
14242;BME280;7205;50.864;12.766;2023-02-15T12:20:02;98605.19;;;9.83;52.57
14242;BME280;7205;50.864;12.766;2023-02-15T12:22:34;98603.06;;;9.87;51.76
14242;BME280;7205;50.864;12.766;2023-02-15T12:25:18;98607.25;;;9.89;51.96
14242;BME280;7205;50.864;12.766;2023-02-15T12:27:47;98598.19;;;9.92;51.49
14242;BME280;7205;50.864;12.766;2023-02-15T12:30:19;98596.25;;;9.94;51.61
14242;BME280;7205;50.864;12.766;2023-02-15T12:32:52;98595.94;;;9.97;51.14
14242;BME280;7205;50.864;12.766;2023-02-15T12:35:27;98594.81;;;9.99;50.91
14242;BME280;7205;50.864;12.766;2023-02-15T12:38:01;98598.81;;;10.03;50.47
14242;BME280;7205;50.864;12.766;2023-02-15T12:40:30;98604.94;;;10.04;49.72
14242;BME280;7205;50.864;12.766;2023-02-15T12:42:59;98602.97;;;10.06;49.86
14242;BME280;7205;50.864;12.766;2023-02-15T12:45:27;98604.50;;;10.08;49.52
14242;BME280;7205;50.864;12.766;2023-02-15T12:48:12;98592.00;;;10.10;49.98
14242;BME280;7205;50.864;12.766;2023-02-15T12:50:42;98587.09;;;10.16;49.80
14242;BME280;7205;50.864;12.766;2023-02-15T12:53:15;98579.03;;;10.17;49.48
14242;BME280;7205;50.864;12.766;2023-02-15T12:55:52;98575.56;;;10.17;48.00
14242;BME280;7205;50.864;12.766;2023-02-15T12:58:25;98580.84;;;10.17;47.66
14242;BME280;7205;50.864;12.766;2023-02-15T13:01:04;98582.38;;;10.19;47.17
14242;BME280;7205;50.864;12.766;2023-02-15T13:03:54;98574.97;;;10.23;46.58
14242;BME280;7205;50.864;12.766;2023-02-15T13:06:21;98578.16;;;10.26;46.89
14242;BME280;7205;50.864;12.766;2023-02-15T13:08:51;98581.47;;;10.28;46.17
14242;BME280;7205;50.864;12.766;2023-02-15T13:11:21;98582.28;;;10.29;45.76
14242;BME280;7205;50.864;12.766;2023-02-15T13:13:51;98581.97;;;10.32;45.76
14242;BME280;7205;50.864;12.766;2023-02-15T13:16:24;98574.59;;;10.35;45.69
14242;BME280;7205;50.864;12.766;2023-02-15T13:18:54;98566.25;;;10.40;45.85
14242;BME280;7205;50.864;12.766;2023-02-15T13:21:23;98561.34;;;10.45;46.38
14242;BME280;7205;50.864;12.766;2023-02-15T13:23:56;98565.31;;;10.49;46.55
14242;BME280;7205;50.864;12.766;2023-02-15T13:26:26;98560.25;;;10.55;46.68
14242;BME280;7205;50.864;12.766;2023-02-15T13:29:07;98563.56;;;10.57;45.29
14242;BME280;7205;50.864;12.766;2023-02-15T13:31:52;98560.34;;;10.63;45.33
14242;BME280;7205;50.864;12.766;2023-02-15T13:34:39;98550.44;;;10.65;45.05
14242;BME280;7205;50.864;12.766;2023-02-15T13:37:16;98553.44;;;10.70;45.59
14242;BME280;7205;50.864;12.766;2023-02-15T13:39:54;98558.13;;;10.76;45.31